Time;durP1;ratioP1;P1;durP2;ratioP2;P2;SDS_P1;SDS_P2;PMS_P1;PMS_P2;Temp;Humidity;BMP_temperature;BMP_pressure;BME280_temperature;BME280_humidity;BME280_pressure;Samples;Min_cycle;Max_cycle;Signal;HPM_P1;HPM_P2
2021/04/09 00:01:02;;;;;;;18.95;12.73;;;;;;;8.02;57.96;101707.81;5013075;28;20084;-85
2021/04/09 00:03:29;;;;;;;21.50;12.95;;;;;;;7.96;57.90;101694.59;5012937;28;20080;-85
2021/04/09 00:05:55;;;;;;;25.55;14.88;;;;;;;8.01;57.86;101691.97;5013075;28;20499;-85
2021/04/09 00:08:21;;;;;;;18.20;12.43;;;;;;;8.01;57.49;101697.25;5013080;28;20036;-85
2021/04/09 00:10:48;;;;;;;23.75;12.88;;;;;;;7.99;57.48;101699.91;5012810;28;20059;-85
2021/04/09 00:13:22;;;;;;;23.17;13.32;;;;;;;7.95;57.23;101692.84;5012805;28;20072;-83
2021/04/09 00:15:57;;;;;;;23.90;13.18;;;;;;;8.09;56.40;101688.50;5012664;28;20042;-83
2021/04/09 00:18:28;;;;;;;22.02;13.82;;;;;;;8.03;56.64;101684.97;5012485;28;20034;-83
2021/04/09 00:20:55;;;;;;;22.38;11.90;;;;;;;8.12;56.19;101678.84;5012667;28;20030;-84
2021/04/09 00:23:21;;;;;;;23.58;13.55;;;;;;;8.02;56.11;101673.50;5012730;28;20068;-85
2021/04/09 00:25:48;;;;;;;20.20;12.90;;;;;;;8.13;56.28;101676.19;5012579;28;20033;-84
2021/04/09 00:28:14;;;;;;;21.92;13.07;;;;;;;8.14;55.63;101672.69;5012841;28;20037;-85
2021/04/09 00:30:41;;;;;;;22.75;13.13;;;;;;;8.03;56.08;101675.28;5012594;28;20053;-85
2021/04/09 00:33:07;;;;;;;21.55;12.75;;;;;;;8.13;55.75;101677.97;5012434;28;20026;-85
2021/04/09 00:35:34;;;;;;;20.35;12.57;;;;;;;8.14;55.56;101679.69;5012633;28;20030;-85
2021/04/09 00:38:02;;;;;;;23.98;12.15;;;;;;;8.19;55.43;101678.84;4994450;28;20172;-85
2021/04/09 00:40:28;;;;;;;19.30;12.75;;;;;;;8.04;55.84;101671.75;5012553;28;20041;-86
2021/04/09 00:42:55;;;;;;;26.42;14.23;;;;;;;8.00;55.51;101679.66;5012687;28;20500;-85
2021/04/09 00:45:22;;;;;;;26.60;13.88;;;;;;;7.97;55.55;101675.25;5012220;28;20059;-85
2021/04/09 00:47:49;;;;;;;22.33;12.85;;;;;;;8.08;55.18;101665.59;5012454;28;20026;-85
2021/04/09 00:50:15;;;;;;;24.30;12.75;;;;;;;8.07;55.39;101655.97;5012317;28;20563;-84
2021/04/09 00:52:44;;;;;;;24.15;13.68;;;;;;;7.98;55.46;101655.03;5012360;28;20064;-84
2021/04/09 00:55:12;;;;;;;19.42;13.02;;;;;;;8.03;55.50;101651.53;5012474;28;20036;-85
2021/04/09 00:57:40;;;;;;;21.20;13.52;;;;;;;7.95;55.27;101661.19;5011822;28;20033;-85
2021/04/09 01:00:10;;;;;;;22.10;12.93;;;;;;;8.07;55.16;101661.22;5011332;28;20023;-85
2021/04/09 01:02:37;;;;;;;20.27;13.65;;;;;;;8.02;55.50;101655.03;5012414;28;20049;-85
2021/04/09 01:05:09;;;;;;;20.35;12.43;;;;;;;8.08;55.18;101648.91;5012143;28;20034;-85
2021/04/09 01:07:36;;;;;;;21.23;12.63;;;;;;;8.07;55.47;101652.41;5012937;28;20026;-85
2021/04/09 01:10:05;;;;;;;20.40;12.68;;;;;;;8.11;54.62;101648.91;5016091;28;20042;-86
2021/04/09 01:12:32;;;;;;;20.02;12.32;;;;;;;8.04;55.28;101650.66;5016136;28;20033;-86
2021/04/09 01:14:59;;;;;;;21.35;13.05;;;;;;;8.04;55.35;101647.13;5015556;28;20034;-85
2021/04/09 01:26:18;;;;;;;19.58;12.30;;;;;;;8.33;54.36;101636.63;5071872;27;20921;-84
2021/04/09 01:29:24;;;;;;;18.50;11.13;;;;;;;8.35;54.18;101628.72;5053909;28;20041;-85
2021/04/09 01:32:00;;;;;;;18.27;11.35;;;;;;;8.16;54.53;101626.06;5049845;28;20041;-85
2021/04/09 01:34:32;;;;;;;18.77;12.68;;;;;;;8.15;54.27;101620.75;5063963;28;20036;-84
2021/04/09 01:37:07;;;;;;;21.17;12.23;;;;;;;8.19;54.14;101619.91;5050431;28;20040;-84
2021/04/09 01:39:40;;;;;;;19.08;12.38;;;;;;;8.13;54.68;101618.13;5051699;28;20472;-85
2021/04/09 01:42:10;;;;;;;24.15;11.98;;;;;;;8.16;54.57;101610.22;5049845;28;20087;-85
2021/04/09 01:44:45;;;;;;;16.98;11.98;;;;;;;8.26;54.62;101608.47;5049464;28;20098;-84
2021/04/09 01:47:13;;;;;;;21.88;11.60;;;;;;;8.28;54.42;101609.34;5049878;28;20029;-84
2021/04/09 01:49:41;;;;;;;18.00;11.80;;;;;;;8.28;54.43;101601.44;5049346;28;20044;-84
2021/04/09 01:52:12;;;;;;;18.75;11.48;;;;;;;8.29;54.43;101604.94;5049597;28;20119;-83
2021/04/09 01:54:40;;;;;;;18.98;11.95;;;;;;;8.24;54.73;101602.31;5049444;28;20063;-84
2021/04/09 01:57:10;;;;;;;20.70;11.20;;;;;;;8.33;54.06;101590.88;5049661;28;20108;-85
2021/04/09 01:59:40;;;;;;;17.45;10.43;;;;;;;8.30;54.53;101599.69;5049638;28;20037;-85
2021/04/09 02:02:08;;;;;;;19.73;11.35;;;;;;;8.26;54.24;101593.50;5049415;28;20037;-85
2021/04/09 02:04:36;;;;;;;17.05;11.15;;;;;;;8.19;54.97;101590.88;5048935;28;20033;-85
2021/04/09 02:07:04;;;;;;;19.13;11.20;;;;;;;8.13;54.78;101588.22;5048667;28;20381;-85
2021/04/09 02:09:32;;;;;;;19.25;11.05;;;;;;;8.19;54.80;101593.50;5049344;28;20032;-85
2021/04/09 02:11:59;;;;;;;18.92;11.60;;;;;;;8.15;55.26;101579.41;5048752;28;20491;-84
2021/04/09 02:14:27;;;;;;;20.42;11.73;;;;;;;8.23;54.85;101584.72;5049099;28;20083;-85
2021/04/09 02:16:55;;;;;;;22.52;12.18;;;;;;;8.22;54.59;101577.66;5049114;28;20108;-85
2021/04/09 02:19:25;;;;;;;15.00;11.05;;;;;;;8.10;54.78;101574.13;5049039;28;20025;-85
2021/04/09 02:21:51;;;;;;;19.30;12.23;;;;;;;8.29;54.86;101566.22;5048959;28;20108;-85
2021/04/09 02:24:18;;;;;;;16.77;12.18;;;;;;;8.24;55.19;101575.91;5048624;28;20480;-84
2021/04/09 02:26:45;;;;;;;20.65;12.57;;;;;;;8.32;54.35;101565.34;5049208;28;20033;-85
2021/04/09 02:29:12;;;;;;;17.27;11.70;;;;;;;8.36;54.13;101567.09;5048891;28;20408;-85
2021/04/09 02:31:40;;;;;;;21.98;12.27;;;;;;;8.33;54.82;101568.00;5053339;28;20614;-85
2021/04/09 02:34:07;;;;;;;18.23;11.88;;;;;;;8.37;54.21;101564.50;5053677;28;20029;-84
2021/04/09 02:36:34;;;;;;;22.60;12.07;;;;;;;8.35;54.25;101558.31;5043297;28;20473;-85
2021/04/09 02:39:10;;;;;;;24.98;13.02;;;;;;;8.42;54.29;101562.72;5037140;28;20369;-85
2021/04/09 02:41:41;;;;;;;19.80;12.68;;;;;;;8.40;54.38;101555.69;5045959;28;20112;-85
2021/04/09 02:44:08;;;;;;;18.77;12.50;;;;;;;8.32;54.62;101555.66;5035018;28;20132;-85
2021/04/09 02:49:46;;;;;;;20.58;12.55;;;;;;;8.40;54.58;101542.50;5069942;28;20434;-85
2021/04/09 02:52:16;;;;;;;22.35;12.85;;;;;;;8.45;54.76;101546.00;5069956;28;20064;-85
2021/04/09 02:54:48;;;;;;;19.90;12.82;;;;;;;8.41;54.47;101550.41;5065231;28;20029;-85
2021/04/09 02:57:15;;;;;;;18.03;11.60;;;;;;;8.45;54.89;101545.09;5061822;28;20075;-84
2021/04/09 02:59:43;;;;;;;19.25;12.32;;;;;;;8.49;54.64;101546.94;5069856;28;20028;-85
2021/04/09 03:02:12;;;;;;;17.95;11.63;;;;;;;8.46;54.88;101547.81;5069990;28;20025;-85
2021/04/09 03:04:40;;;;;;;17.15;12.00;;;;;;;8.37;54.71;101537.19;5069484;28;20025;-85
2021/04/09 03:07:06;;;;;;;20.92;11.38;;;;;;;8.51;54.73;101537.22;5069655;28;20030;-85
2021/04/09 03:09:33;;;;;;;16.48;10.95;;;;;;;8.33;54.99;101531.03;5069704;28;20470;-85
2021/04/09 03:11:59;;;;;;;16.83;11.90;;;;;;;8.39;54.98;101531.03;5069836;28;20063;-85
2021/04/09 03:14:27;;;;;;;14.70;11.13;;;;;;;8.39;54.86;101535.44;5068200;28;20032;-85
2021/04/09 03:17:02;;;;;;;16.52;10.45;;;;;;;8.38;54.79;101538.97;5069524;28;20138;-85
2021/04/09 03:19:28;;;;;;;13.65;10.23;;;;;;;8.46;54.11;101536.31;5069470;28;20457;-84
2021/04/09 03:21:55;;;;;;;17.25;11.48;;;;;;;8.43;54.53;101538.06;5069488;28;20036;-85
2021/04/09 03:24:21;;;;;;;19.42;11.57;;;;;;;8.45;54.20;101534.53;5065077;28;20047;-85
2021/04/09 03:26:48;;;;;;;16.00;10.65;;;;;;;8.43;54.27;101527.50;5069270;28;20503;-85
2021/04/09 03:29:14;;;;;;;20.77;11.07;;;;;;;8.51;54.75;101524.91;5069519;28;20245;-85
2021/04/09 03:31:40;;;;;;;17.40;11.35;;;;;;;8.52;54.77;101524.03;5068846;28;20031;-85
2021/04/09 03:34:06;;;;;;;15.55;10.20;;;;;;;8.55;54.21;101520.50;5069212;28;20055;-85
2021/04/09 03:36:33;;;;;;;16.38;9.77;;;;;;;8.70;54.21;101525.75;5069162;28;20119;-84
2021/04/09 03:38:59;;;;;;;15.18;10.35;;;;;;;8.63;54.03;101521.38;5069047;28;20064;-84
2021/04/09 03:41:25;;;;;;;14.95;11.00;;;;;;;8.62;54.68;101514.31;5068970;28;20037;-85
2021/04/09 03:43:52;;;;;;;14.70;10.55;;;;;;;8.69;54.48;101523.13;5069110;28;20037;-85
2021/04/09 03:46:18;;;;;;;19.40;11.32;;;;;;;8.68;53.93;101516.09;5069042;28;20561;-85
2021/04/09 03:48:44;;;;;;;18.42;10.35;;;;;;;8.68;54.31;101509.03;5068484;28;20094;-85
2021/04/09 03:51:11;;;;;;;17.58;10.75;;;;;;;8.51;55.07;101517.00;5068676;28;20536;-85
2021/04/09 03:53:38;;;;;;;18.05;11.25;;;;;;;8.70;54.14;101509.06;5056694;28;20546;-85
2021/04/09 03:56:05;;;;;;;18.00;11.38;;;;;;;8.65;54.81;101506.41;5066989;28;20035;-84
2021/04/09 03:58:31;;;;;;;18.02;11.40;;;;;;;8.55;55.12;101499.38;5066936;28;20060;-84
2021/04/09 04:00:57;;;;;;;15.02;11.25;;;;;;;8.55;55.08;101499.38;5053874;28;20033;-84
2021/04/09 04:03:24;;;;;;;17.77;10.40;;;;;;;8.60;54.51;101492.31;5055682;28;20132;-85
2021/04/09 04:05:50;;;;;;;23.77;10.82;;;;;;;8.53;54.41;101496.72;5055204;28;20434;-84
2021/04/09 04:08:16;;;;;;;16.13;10.85;;;;;;;8.55;54.94;101499.38;5055048;28;20033;-83
2021/04/09 04:10:42;;;;;;;17.00;11.32;;;;;;;8.53;54.68;101495.84;5055328;28;20044;-84
2021/04/09 04:13:09;;;;;;;17.63;10.15;;;;;;;8.65;54.77;101501.13;5054932;28;20044;-84
2021/04/09 04:15:35;;;;;;;19.30;11.30;;;;;;;8.64;54.38;101496.72;5044666;28;20034;-84
2021/04/09 04:18:01;;;;;;;19.60;11.52;;;;;;;8.40;55.31;101493.19;5041644;28;20036;-84
2021/04/09 04:20:29;;;;;;;17.10;10.80;;;;;;;8.34;55.46;101494.97;5054913;28;20119;-84
2021/04/09 04:22:55;;;;;;;20.95;11.40;;;;;;;8.38;55.54;101492.28;5053414;28;20021;-85
2021/04/09 04:25:21;;;;;;;18.08;11.02;;;;;;;8.32;55.73;101491.44;5055283;28;20079;-84
2021/04/09 04:27:48;;;;;;;25.33;12.45;;;;;;;8.31;55.25;101489.66;5055039;28;20033;-84
2021/04/09 04:30:14;;;;;;;13.77;10.30;;;;;;;8.33;55.60;101491.41;5054614;28;20127;-84
2021/04/09 04:32:41;;;;;;;17.50;10.55;;;;;;;8.30;55.54;101488.78;5042766;28;20100;-85
2021/04/09 04:35:08;;;;;;;22.27;12.30;;;;;;;8.32;55.80;101487.00;5052723;28;20112;-85
2021/04/09 04:37:35;;;;;;;18.02;10.93;;;;;;;8.29;55.82;101486.13;5054938;28;20071;-85
2021/04/09 04:40:01;;;;;;;18.25;10.98;;;;;;;8.32;55.35;101478.22;5054728;28;20057;-84
2021/04/09 04:42:27;;;;;;;19.63;12.85;;;;;;;8.18;56.23;101483.50;5040629;28;20068;-84
2021/04/09 04:44:54;;;;;;;24.33;11.85;;;;;;;8.09;56.35;101473.84;5054273;28;20029;-84
2021/04/09 04:47:20;;;;;;;22.90;13.50;;;;;;;8.10;56.56;101473.81;5054553;28;20040;-85
2021/04/09 04:49:46;;;;;;;21.20;13.18;;;;;;;8.03;56.60;101476.47;5046160;28;20101;-84
2021/04/09 04:52:13;;;;;;;24.05;11.68;;;;;;;8.08;56.26;101475.56;5049604;28;20029;-85
2021/04/09 04:54:39;;;;;;;19.13;12.02;;;;;;;8.13;55.93;101474.72;5054589;28;20021;-84
2021/04/09 04:57:07;;;;;;;22.75;11.68;;;;;;;8.04;56.74;101480.88;5054590;28;20076;-85
2021/04/09 04:59:33;;;;;;;19.55;11.65;;;;;;;8.02;56.71;101478.22;5054397;28;20468;-85
2021/04/09 05:01:59;;;;;;;19.00;12.73;;;;;;;7.96;56.77;101472.91;5054133;28;20033;-85
2021/04/09 05:04:25;;;;;;;20.92;12.95;;;;;;;8.00;56.88;101480.00;5053757;28;20475;-84
2021/04/09 05:06:51;;;;;;;21.63;13.00;;;;;;;7.96;56.93;101472.91;5054186;28;20033;-84
2021/04/09 05:09:18;;;;;;;18.10;12.68;;;;;;;7.99;56.99;101472.94;5053784;28;20108;-84
2021/04/09 05:11:44;;;;;;;20.27;12.63;;;;;;;8.01;56.93;101470.28;5053439;28;20040;-84
2021/04/09 05:14:10;;;;;;;22.73;12.88;;;;;;;7.97;57.20;101471.19;5054223;28;20099;-85
2021/04/09 05:16:36;;;;;;;22.48;12.55;;;;;;;7.91;57.54;101477.31;5054323;28;20028;-85
2021/04/09 05:19:02;;;;;;;20.00;12.43;;;;;;;7.90;57.71;101468.53;5043455;28;20041;-84
2021/04/09 05:21:29;;;;;;;19.05;12.00;;;;;;;7.97;57.11;101469.41;5047798;28;20029;-85
2021/04/09 05:23:55;;;;;;;20.10;11.32;;;;;;;7.98;57.31;101471.19;5051701;28;20041;-84
2021/04/09 05:26:21;;;;;;;26.83;12.10;;;;;;;8.00;57.71;101469.44;5054436;28;20044;-86
2021/04/09 05:28:47;;;;;;;18.52;11.27;;;;;;;8.02;57.29;101469.41;5054095;28;20028;-84
2021/04/09 05:31:13;;;;;;;16.88;10.32;;;;;;;8.04;57.49;101471.19;5046132;28;20495;-86
2021/04/09 05:33:40;;;;;;;16.23;11.05;;;;;;;8.02;57.17;101472.94;5038997;28;20048;-86
2021/04/09 05:36:06;;;;;;;18.67;11.27;;;;;;;8.03;57.69;101468.56;5026116;28;20037;-86
2021/04/09 05:38:32;;;;;;;17.85;11.43;;;;;;;8.10;57.02;101471.19;5034312;28;20070;-85
2021/04/09 05:40:59;;;;;;;16.38;10.63;;;;;;;8.10;57.17;101468.53;5036647;28;20103;-85
2021/04/09 05:43:25;;;;;;;20.80;11.52;;;;;;;8.15;57.03;101468.56;5017524;28;20030;-84
2021/04/09 05:45:53;;;;;;;17.02;11.15;;;;;;;8.16;57.63;101465.03;5031944;28;20111;-84
2021/04/09 05:48:19;;;;;;;20.58;11.20;;;;;;;8.16;57.60;101472.06;5036875;28;20167;-85
2021/04/09 05:50:46;;;;;;;15.50;11.43;;;;;;;8.10;57.99;101471.19;5037283;28;20030;-85
2021/04/09 05:53:14;;;;;;;25.15;12.00;;;;;;;8.11;58.05;101466.78;5033792;28;20041;-85
2021/04/09 05:55:40;;;;;;;19.35;12.68;;;;;;;8.11;58.24;101461.50;5033369;28;20029;-82
2021/04/09 05:58:07;;;;;;;23.50;11.93;;;;;;;8.21;58.21;101462.38;5037186;28;20037;-85
2021/04/09 06:00:33;;;;;;;18.58;12.38;;;;;;;8.21;57.65;101462.38;5033258;28;20083;-86
2021/04/09 06:02:59;;;;;;;18.77;12.35;;;;;;;8.23;58.31;101465.91;5039932;28;20053;-85
2021/04/09 06:05:26;;;;;;;23.13;10.98;;;;;;;8.17;58.36;101468.53;5038188;28;20021;-84
2021/04/09 06:07:52;;;;;;;22.58;13.18;;;;;;;8.26;58.12;101465.88;5044138;28;20108;-86
2021/04/09 06:10:19;;;;;;;22.13;12.68;;;;;;;8.22;58.78;101464.16;5040023;28;20079;-86
2021/04/09 06:12:45;;;;;;;22.15;12.25;;;;;;;8.30;58.86;101466.78;5048548;28;20029;-86
2021/04/09 06:15:13;;;;;;;17.48;12.45;;;;;;;8.29;59.15;101465.91;5055760;28;20116;-88
2021/04/09 06:17:39;;;;;;;17.55;12.32;;;;;;;8.39;59.08;101466.78;5064555;28;20013;-86
2021/04/09 06:20:07;;;;;;;26.45;14.70;;;;;;;8.29;59.62;101465.00;5066452;28;20047;-87
2021/04/09 06:22:33;;;;;;;20.13;12.85;;;;;;;8.57;58.89;101466.81;5060163;28;20064;-86
2021/04/09 06:25:00;;;;;;;18.33;11.38;;;;;;;8.57;58.88;101466.81;5051570;28;20037;-87
2021/04/09 06:27:26;;;;;;;18.70;12.38;;;;;;;8.42;59.06;101458.84;5054732;28;20021;-86
2021/04/09 06:29:52;;;;;;;25.80;13.63;;;;;;;8.60;59.25;101465.00;5053997;28;20025;-86
2021/04/09 06:32:19;;;;;;;18.42;12.55;;;;;;;8.79;58.43;101466.75;5050505;28;20037;-85
2021/04/09 06:34:45;;;;;;;19.30;12.38;;;;;;;8.85;58.18;101465.84;5054443;28;20037;-87
2021/04/09 06:37:11;;;;;;;18.95;10.73;;;;;;;8.86;58.30;101470.22;5053885;28;20061;-86
2021/04/09 06:39:37;;;;;;;17.88;11.55;;;;;;;8.90;58.43;101470.22;5052729;28;20029;-86
2021/04/09 06:42:06;;;;;;;19.45;12.35;;;;;;;8.95;58.32;101472.88;5047419;28;20026;-85
2021/04/09 06:44:33;;;;;;;18.40;11.35;;;;;;;9.02;58.23;101464.03;5038192;28;20025;-86
2021/04/09 06:46:59;;;;;;;19.10;11.13;;;;;;;8.95;59.14;101467.59;5039016;28;20558;-86
2021/04/09 06:49:26;;;;;;;19.45;12.18;;;;;;;9.11;59.00;101463.13;5031826;28;20029;-86
2021/04/09 06:51:52;;;;;;;20.67;12.93;;;;;;;9.21;58.63;101469.25;5033513;28;20110;-86
2021/04/09 06:54:22;;;;;;;16.25;11.07;;;;;;;9.34;58.65;101472.72;5037910;28;20025;-86
2021/04/09 06:56:49;;;;;;;22.92;11.57;;;;;;;9.37;58.65;101465.66;5029675;28;20044;-86
2021/04/09 06:59:19;;;;;;;19.90;12.70;;;;;;;9.50;58.76;101473.53;5031644;28;20033;-86
2021/04/09 07:01:47;;;;;;;20.33;11.85;;;;;;;9.51;58.69;101457.63;5033606;28;20025;-86
2021/04/09 07:04:14;;;;;;;20.80;11.55;;;;;;;9.63;58.42;101458.44;5037954;28;20468;-87
2021/04/09 07:06:40;;;;;;;22.23;11.68;;;;;;;9.62;58.59;101459.31;5037929;28;20104;-87
2021/04/09 07:09:07;;;;;;;16.60;11.77;;;;;;;9.81;58.11;101452.16;5050192;28;20091;-85
2021/04/09 07:11:38;;;;;;;20.98;11.23;;;;;;;9.88;58.37;101461.78;5037381;28;20488;-87
2021/04/09 07:14:08;;;;;;;16.02;9.90;;;;;;;10.02;57.65;101461.72;5044807;28;20064;-85
2021/04/09 07:16:34;;;;;;;18.88;11.15;;;;;;;10.03;57.60;101461.69;5039824;28;20093;-87
2021/04/09 07:19:04;;;;;;;17.30;10.40;;;;;;;10.09;57.65;101463.41;5032580;28;20099;-87
2021/04/09 07:21:33;;;;;;;18.65;9.85;;;;;;;10.01;57.76;101462.59;5032135;28;20495;-87
2021/04/09 07:26:55;;;;;;;21.33;9.75;;;;;;;10.24;57.22;101462.38;5085347;27;20440;-87
2021/04/09 07:29:39;;;;;;;15.43;9.52;;;;;;;10.45;56.92;101466.66;5070231;28;20025;-87
2021/04/09 07:37:47;;;;;;;19.85;10.73;;;;;;;10.71;56.75;101465.53;5075970;27;20923;-88
2021/04/09 07:40:16;;;;;;;16.73;10.80;;;;;;;10.83;56.32;101469.81;5055820;28;20120;-87
2021/04/09 07:42:43;;;;;;;14.43;9.18;;;;;;;10.83;56.33;101469.81;5069341;28;20467;-88
2021/04/09 07:45:12;;;;;;;18.92;9.88;;;;;;;10.84;56.40;101466.25;5069143;28;20518;-88
2021/04/09 07:47:40;;;;;;;17.20;10.27;;;;;;;10.81;56.54;101466.31;5049539;28;20108;-88
2021/04/09 07:50:10;;;;;;;17.15;10.50;;;;;;;10.93;56.10;101465.28;5052878;28;20063;-86
2021/04/09 07:52:43;;;;;;;19.08;9.80;;;;;;;10.97;56.22;101457.28;5049351;28;20026;-87
2021/04/09 07:55:16;;;;;;;20.38;9.52;;;;;;;10.92;56.37;101459.09;5049575;28;20040;-87
2021/04/09 07:57:44;;;;;;;26.00;15.73;;;;;;;10.98;56.15;101468.78;5049878;28;20036;-87
2021/04/09 08:02:57;;;;;;;19.13;9.88;;;;;;;10.98;56.10;101464.34;5075328;27;20179;-86
2021/04/09 08:05:26;;;;;;;22.15;9.52;;;;;;;11.07;56.04;101457.19;5055655;28;20061;-85
2021/04/09 08:07:53;;;;;;;21.75;9.98;;;;;;;11.13;55.93;101467.72;5050494;28;20056;-86
2021/04/09 08:10:35;;;;;;;17.88;9.55;;;;;;;11.18;56.18;101457.91;5052262;28;20055;-85
2021/04/09 08:13:02;;;;;;;;;;;;;;;11.45;55.42;101458.44;5056309;28;20034;-86
2021/04/09 08:15:32;;;;;;;18.33;9.05;;;;;;;11.33;55.98;101468.31;5055339;28;20323;-86
2021/04/09 08:18:02;;;;;;;14.75;9.40;;;;;;;11.33;55.43;101465.66;5047919;28;20107;-87
2021/04/09 08:20:31;;;;;;;21.77;9.13;;;;;;;11.39;55.62;101472.69;5053325;28;20083;-86
2021/04/09 08:23:01;;;;;;;18.45;8.93;;;;;;;11.30;55.77;101476.34;5058307;28;20037;-86
2021/04/09 08:25:28;;;;;;;18.88;9.10;;;;;;;11.33;55.81;101465.66;5053908;28;20083;-79
2021/04/09 08:27:57;;;;;;;20.52;9.60;;;;;;;11.33;55.90;101472.75;5055457;28;20033;-88
2021/04/09 08:30:24;;;;;;;15.20;9.30;;;;;;;11.59;55.61;101461.78;5048808;28;20048;-89
2021/04/09 08:32:54;;;;;;;19.17;8.63;;;;;;;11.67;55.10;101461.66;5049166;28;20025;-89
2021/04/09 08:35:21;;;;;;;13.50;8.32;;;;;;;11.50;54.88;101475.16;5048870;28;20025;-87
2021/04/09 08:37:49;;;;;;;50.58;29.73;;;;;;;11.67;54.41;101476.72;5049081;28;20064;-87
2021/04/09 08:40:17;;;;;;;19.67;10.43;;;;;;;11.70;54.60;101479.31;5058556;28;20028;-87
2021/04/09 08:42:44;;;;;;;14.40;8.65;;;;;;;11.80;54.54;101470.31;5048673;28;20033;-89
2021/04/09 08:45:12;;;;;;;13.45;8.25;;;;;;;11.85;54.00;101471.16;5050978;28;20431;-86
2021/04/09 08:47:40;;;;;;;17.77;9.80;;;;;;;11.89;53.95;101470.19;5051411;28;20075;-88
2021/04/09 08:50:10;;;;;;;17.95;8.60;;;;;;;11.96;54.17;101466.59;5050600;28;20079;-88
2021/04/09 08:52:43;;;;;;;20.38;8.25;;;;;;;12.16;54.05;101473.31;5053120;28;20032;-87
2021/04/09 08:55:10;;;;;;;;;;;;;;;12.33;53.47;101464.22;5051946;28;20060;-88
2021/04/09 08:57:38;;;;;;;16.90;9.10;;;;;;;12.22;53.04;101461.72;5048243;28;19978;-88
2021/04/09 09:05:30;;;;;;;14.50;8.77;;;;;;;12.34;52.79;101465.97;5098299;27;20383;-85
2021/04/09 09:13:27;;;;;;;19.52;8.20;;;;;;;12.84;52.35;101471.25;5108158;27;20383;-88
2021/04/09 09:24:15;;;;;;;11.35;8.27;;;;;;;13.24;50.45;101463.31;5067309;28;20778;-87
2021/04/09 09:26:43;;;;;;;17.40;8.93;;;;;;;13.48;50.39;101471.72;5045314;28;20029;-87
2021/04/09 09:29:27;;;;;;;13.63;7.85;;;;;;;13.56;49.63;101472.44;5043347;28;20026;-89
2021/04/09 09:40:01;;;;;;;15.65;8.63;;;;;;;14.01;49.00;101473.19;5081209;27;20408;-84
2021/04/09 09:45:22;;;;;;;16.40;9.38;;;;;;;14.35;48.68;101475.88;5061496;27;20794;-81
2021/04/09 09:47:49;;;;;;;17.55;6.75;;;;;;;14.21;47.66;101475.38;5045655;28;20845;-85
2021/04/09 09:50:26;;;;;;;14.65;8.25;;;;;;;14.39;47.74;101468.69;5050121;28;20026;-85
2021/04/09 09:53:04;;;;;;;11.23;6.60;;;;;;;14.51;46.10;101467.50;5049408;28;20546;-82
2021/04/09 09:55:32;;;;;;;14.27;6.50;;;;;;;14.65;45.89;101469.81;5060111;28;20048;-82
2021/04/09 10:00:59;;;;;;;9.32;6.25;;;;;;;14.64;44.97;101471.59;5069224;28;20436;-84
2021/04/09 10:03:29;;;;;;;17.42;7.75;;;;;;;14.66;45.09;101469.78;5066656;28;20469;-84
2021/04/09 10:08:39;;;;;;;11.05;7.25;;;;;;;14.22;45.80;101472.66;5048665;28;20385;-84
2021/04/09 10:11:08;;;;;;;21.52;6.32;;;;;;;14.05;46.31;101480.19;5044638;28;20044;-84
2021/04/09 10:16:21;;;;;;;15.60;4.00;;;;;;;13.83;46.86;101474.50;5057443;28;20362;-84
2021/04/09 10:21:36;;;;;;;9.77;4.72;;;;;;;13.83;46.26;101477.16;5070511;27;20889;-83
2021/04/09 10:29:37;;;;;;;8.07;3.50;;;;;;;13.67;46.92;101479.31;5073266;27;20820;-84
2021/04/09 10:32:05;;;;;;;10.73;5.40;;;;;;;13.52;46.52;101468.09;5067585;28;20028;-86
2021/04/09 10:34:34;;;;;;;10.77;3.72;;;;;;;13.52;46.57;101476.09;5062725;28;20033;-84
2021/04/09 10:37:01;;;;;;;8.98;3.00;;;;;;;13.56;46.22;101472.44;5031363;28;20022;-84
2021/04/09 10:39:29;;;;;;;5.78;2.53;;;;;;;13.63;46.09;101472.31;5039614;28;20035;-85
2021/04/09 10:41:58;;;;;;;10.10;3.30;;;;;;;13.67;46.59;101468.66;5044603;28;20072;-85
2021/04/09 10:44:28;;;;;;;10.15;3.42;;;;;;;13.67;46.60;101468.66;5046708;28;20095;-84
2021/04/09 10:46:57;;;;;;;10.80;3.20;;;;;;;13.78;46.70;101461.28;5030954;28;20029;-85
2021/04/09 10:49:26;;;;;;;9.07;3.13;;;;;;;13.90;47.03;101471.66;5044841;28;20036;-85
2021/04/09 10:51:56;;;;;;;8.13;2.72;;;;;;;13.89;45.92;101483.25;5047954;28;20041;-85
2021/04/09 10:54:29;;;;;;;10.30;3.05;;;;;;;14.07;46.03;101479.25;5046795;28;20392;-85
2021/04/09 10:56:57;;;;;;;6.03;2.50;;;;;;;14.23;45.72;101479.75;5042546;28;20039;-84
2021/04/09 10:59:28;;;;;;;11.25;3.25;;;;;;;14.31;44.99;101473.34;5042265;28;20036;-84
2021/04/09 11:01:56;;;;;;;6.85;2.95;;;;;;;14.43;44.94;101470.38;5045043;28;20036;-86
2021/04/09 11:04:22;;;;;;;10.98;3.00;;;;;;;14.81;44.55;101459.63;5040114;28;20033;-86
2021/04/09 11:07:06;;;;;;;6.70;2.42;;;;;;;14.86;43.76;101463.03;5041884;28;20029;-85
2021/04/09 11:09:43;;;;;;;7.82;2.90;;;;;;;15.02;43.06;101458.13;5034931;28;20117;-86
2021/04/09 11:12:28;;;;;;;5.75;2.20;;;;;;;15.10;41.93;101468.59;5040439;28;20026;-84
2021/04/09 11:17:58;;;;;;;6.50;2.30;;;;;;;15.29;42.26;101447.53;5073519;27;20409;-86
2021/04/09 11:23:10;;;;;;;8.20;2.38;;;;;;;15.96;41.35;101435.69;5069368;27;20413;-85
2021/04/09 11:25:39;;;;;;;10.60;2.78;;;;;;;16.21;41.21;101440.22;5053740;28;20473;-83
2021/04/09 11:28:08;;;;;;;7.30;2.30;;;;;;;16.46;41.26;101430.44;5040832;28;20119;-84
2021/04/09 11:30:37;;;;;;;6.63;2.50;;;;;;;16.61;40.73;101425.44;5041136;28;20028;-81
2021/04/09 11:33:04;;;;;;;9.60;2.50;;;;;;;16.50;39.80;101436.53;5036354;28;20030;-83
2021/04/09 11:35:39;;;;;;;9.38;1.80;;;;;;;16.50;38.83;101425.84;5036766;28;20044;-83
2021/04/09 11:38:14;;;;;;;7.32;2.03;;;;;;;16.41;39.06;101428.81;5043597;28;20487;-83
2021/04/09 11:40:43;;;;;;;4.13;1.67;;;;;;;16.25;38.78;101436.50;5040180;28;20393;-84
2021/04/09 11:43:13;;;;;;;5.85;2.10;;;;;;;16.21;39.38;101437.53;5039346;28;20033;-83
2021/04/09 11:48:35;;;;;;;6.30;2.10;;;;;;;16.48;40.13;101425.88;5108806;27;20418;-84
2021/04/09 11:51:21;;;;;;;4.53;2.35;;;;;;;16.67;39.04;101433.25;5088168;28;20493;-84
2021/04/09 11:59:25;;;;;;;7.13;2.70;;;;;;;16.48;38.57;101444.59;5059020;28;20368;-90
2021/04/09 12:01:52;;;;;;;6.55;2.30;;;;;;;16.46;38.60;101437.56;5046596;28;20037;-83
2021/04/09 12:04:36;;;;;;;4.00;2.00;;;;;;;16.34;38.25;101438.88;5047436;28;20095;-84
2021/04/09 12:07:04;;;;;;;5.05;1.70;;;;;;;15.99;38.18;101440.94;5026991;28;20105;-85
2021/04/09 12:09:31;;;;;;;5.88;2.10;;;;;;;16.11;38.26;101434.31;5029045;28;20370;-84
2021/04/09 12:11:57;;;;;;;6.63;2.20;;;;;;;16.18;38.79;101436.72;5028847;28;20037;-84
2021/04/09 12:14:44;;;;;;;6.95;2.25;;;;;;;15.93;39.24;101438.47;5027517;28;20026;-84
2021/04/09 12:17:12;;;;;;;6.28;2.00;;;;;;;15.87;39.42;101442.22;5030376;28;20067;-87
2021/04/09 12:19:39;;;;;;;8.88;2.80;;;;;;;15.88;39.80;101433.28;5027225;28;20033;-84
2021/04/09 12:22:06;;;;;;;3.47;1.98;;;;;;;15.91;39.76;101438.50;5029130;28;20026;-87
2021/04/09 12:24:33;;;;;;;7.38;2.40;;;;;;;15.82;39.98;101434.34;5016904;28;20030;-84
2021/04/09 12:26:59;;;;;;;3.83;1.95;;;;;;;15.65;40.21;101425.97;5021636;28;20030;-82
2021/04/09 12:29:26;;;;;;;5.82;2.20;;;;;;;15.56;40.50;101448.50;5016264;28;20366;-83
2021/04/09 12:31:52;;;;;;;4.80;1.83;;;;;;;15.41;40.17;101459.66;5021369;28;20018;-84
2021/04/09 12:34:19;;;;;;;8.68;2.22;;;;;;;15.38;39.76;101449.97;5017358;28;20503;-84
2021/04/09 12:36:46;;;;;;;7.35;2.00;;;;;;;15.50;39.96;101444.25;5019513;28;20018;-84
2021/04/09 12:39:14;;;;;;;7.45;2.25;;;;;;;15.59;40.18;101431.50;5021801;28;20029;-84
2021/04/09 12:41:41;;;;;;;7.50;1.83;;;;;;;15.45;40.05;101442.63;5029034;28;20476;-84
2021/04/09 12:44:09;;;;;;;8.05;3.03;;;;;;;15.51;39.64;101435.31;5028931;28;20025;-84
2021/04/09 12:46:36;;;;;;;7.80;2.17;;;;;;;15.65;39.95;101442.00;5028844;28;20028;-84
2021/04/09 12:49:04;;;;;;;6.28;2.10;;;;;;;15.45;40.08;101440.84;5028852;28;20109;-84